首页
METAR-TAF:

METAR-TAF

机场 :

Imperatriz, 马拉尼昂州, 巴西

纬度: 05-32S, 经度: 047-30W, 海拔: 123米

当前天气观测

该预报发布于52分钟前的10:00 UTC
静风
温度 25°C
湿度 100%
气压 1012 hPa
能见度10公里或以上
1500米以下无云,无积雨云

METAR: SBIZ 241000Z 00000KT CAVOK 25/25 Q1012

时间: 07:52 (10:52 UTC)

预报

该预报发布于6小时和52分钟前的04:00 UTC
预报有效从24日的 06点(UTC)到 24日的 18点(UTC)
风速节,风向
能见度10公里或以上
散云层高于1600英尺
成为
从 24日的 10点(UTC)到 24日的 11点(UTC)
风速7节,风向
多云层高于1600英尺
成为
从 24日的 16点(UTC)到 24日的 17点(UTC)
风速7节,风向东转东北

TAF: SBIZ 240400Z 2406/2418 00000KT 9999 SCT016 TN25/2407Z TX33/2418Z BECMG 2410/2411 09007KT BKN016 BECMG 2416/2417 06007KT RMK PFM

超过4000个机场的气象观测和天气预报(METAR&TAF报告)。

可查询的气象台以黄色和红色小点在地图上表示。

将鼠标移到小点上方,可查看气象台名称。

然后点击查看天气观测和预报。

如需切换地图:点击带黑十字的绿色按钮放大地图;点击带横线的绿色按钮缩小地图;或者点击绿色箭头查看邻近地区的地图。


METAR-TAF: